< < Back
Terminal Aerodrome Forecast


Current Version              Previous Versions:   1  2  3  4  5  6  7  8  9  

Terminal Aerodrome Forecast

342
FTUS42 KTAE 252324
TAFABY
TAF
KABY 252324Z 2600/2624 VRB05KT P6SM SCT250=

Latest METAR

465
SAUS70 KWBC 261000 RRE
MTRABY
METAR KABY 260953Z AUTO 00000KT 9SM CLR 19/17 A3018 RMK AO2 SLP217
T01940172


USA.gov is the U.S. government's official web portal to all federal, state and local government web resources and services.